sensor_id;sensor_type;location;lat;lon;timestamp;pressure;altitude;pressure_sealevel;temperature;humidity
41222;BME280;26952;42.884;23.918;2022-11-27T00:01:14;96853.16;;;0.78;100.00
41222;BME280;26952;42.884;23.918;2022-11-27T00:03:40;96857.38;;;0.81;100.00
41222;BME280;26952;42.884;23.918;2022-11-27T00:06:07;96858.41;;;0.92;100.00
41222;BME280;26952;42.884;23.918;2022-11-27T00:08:32;96856.53;;;0.94;100.00
41222;BME280;26952;42.884;23.918;2022-11-27T00:11:12;96864.03;;;1.00;100.00
41222;BME280;26952;42.884;23.918;2022-11-27T00:13:38;96859.69;;;1.15;100.00
41222;BME280;26952;42.884;23.918;2022-11-27T00:16:04;96874.09;;;1.20;100.00
41222;BME280;26952;42.884;23.918;2022-11-27T00:18:30;96865.91;;;1.26;100.00
41222;BME280;26952;42.884;23.918;2022-11-27T00:21:01;96861.63;;;1.25;100.00
41222;BME280;26952;42.884;23.918;2022-11-27T00:23:27;96859.59;;;1.30;100.00
41222;BME280;26952;42.884;23.918;2022-11-27T00:25:53;96872.63;;;1.44;100.00
41222;BME280;26952;42.884;23.918;2022-11-27T00:28:19;96868.63;;;1.39;100.00
41222;BME280;26952;42.884;23.918;2022-11-27T00:30:44;96869.72;;;1.35;100.00
41222;BME280;26952;42.884;23.918;2022-11-27T00:33:10;96868.81;;;1.36;100.00
41222;BME280;26952;42.884;23.918;2022-11-27T00:35:37;96847.66;;;1.26;100.00
41222;BME280;26952;42.884;23.918;2022-11-27T00:38:03;96847.59;;;1.28;100.00
41222;BME280;26952;42.884;23.918;2022-11-27T00:40:28;96868.25;;;1.45;100.00
41222;BME280;26952;42.884;23.918;2022-11-27T00:42:54;96869.31;;;1.42;100.00
41222;BME280;26952;42.884;23.918;2022-11-27T00:45:19;96873.47;;;1.45;100.00
41222;BME280;26952;42.884;23.918;2022-11-27T00:47:44;96880.84;;;1.53;100.00
41222;BME280;26952;42.884;23.918;2022-11-27T00:50:10;96878.59;;;1.61;100.00
41222;BME280;26952;42.884;23.918;2022-11-27T00:52:35;96876.84;;;1.61;100.00
41222;BME280;26952;42.884;23.918;2022-11-27T00:55:01;96870.41;;;1.53;100.00
41222;BME280;26952;42.884;23.918;2022-11-27T00:57:26;96886.06;;;1.67;100.00
41222;BME280;26952;42.884;23.918;2022-11-27T00:59:51;96877.50;;;1.65;100.00
41222;BME280;26952;42.884;23.918;2022-11-27T01:02:17;96881.56;;;1.69;100.00
41222;BME280;26952;42.884;23.918;2022-11-27T01:04:46;96880.19;;;1.63;100.00
41222;BME280;26952;42.884;23.918;2022-11-27T01:07:12;96880.66;;;1.56;100.00
41222;BME280;26952;42.884;23.918;2022-11-27T01:09:37;96873.22;;;1.64;100.00
41222;BME280;26952;42.884;23.918;2022-11-27T01:12:03;96872.47;;;1.62;100.00
41222;BME280;26952;42.884;23.918;2022-11-27T01:14:28;96873.22;;;1.64;100.00
41222;BME280;26952;42.884;23.918;2022-11-27T01:16:54;96872.63;;;1.73;100.00
41222;BME280;26952;42.884;23.918;2022-11-27T01:19:19;96855.31;;;1.72;100.00
41222;BME280;26952;42.884;23.918;2022-11-27T01:21:45;96863.31;;;1.83;100.00
41222;BME280;26952;42.884;23.918;2022-11-27T01:24:12;96846.91;;;1.81;100.00
41222;BME280;26952;42.884;23.918;2022-11-27T01:26:38;96860.78;;;1.95;100.00
41222;BME280;26952;42.884;23.918;2022-11-27T01:29:04;96859.56;;;2.01;100.00
41222;BME280;26952;42.884;23.918;2022-11-27T01:31:31;96854.63;;;1.96;100.00
41222;BME280;26952;42.884;23.918;2022-11-27T01:34:07;96851.03;;;1.85;100.00
41222;BME280;26952;42.884;23.918;2022-11-27T01:36:36;96849.03;;;1.88;100.00
41222;BME280;26952;42.884;23.918;2022-11-27T01:39:02;96846.06;;;1.94;100.00
41222;BME280;26952;42.884;23.918;2022-11-27T01:41:34;96849.03;;;2.02;100.00
41222;BME280;26952;42.884;23.918;2022-11-27T01:47:04;96852.44;;;2.17;100.00
41222;BME280;26952;42.884;23.918;2022-11-27T01:49:33;96846.69;;;2.12;100.00
41222;BME280;26952;42.884;23.918;2022-11-27T01:52:08;96850.75;;;2.16;100.00
41222;BME280;26952;42.884;23.918;2022-11-27T01:54:46;96850.38;;;2.22;100.00
41222;BME280;26952;42.884;23.918;2022-11-27T01:57:40;96851.19;;;2.22;100.00
41222;BME280;26952;42.884;23.918;2022-11-27T02:00:09;96832.13;;;2.08;100.00
41222;BME280;26952;42.884;23.918;2022-11-27T02:02:37;96842.66;;;2.20;100.00
41222;BME280;26952;42.884;23.918;2022-11-27T02:05:02;96834.97;;;2.17;100.00
41222;BME280;26952;42.884;23.918;2022-11-27T02:07:28;96839.38;;;2.17;100.00
41222;BME280;26952;42.884;23.918;2022-11-27T02:09:53;96817.31;;;2.08;100.00
41222;BME280;26952;42.884;23.918;2022-11-27T02:37:12;96849.28;;;2.12;100.00
41222;BME280;26952;42.884;23.918;2022-11-27T02:45:27;96855.53;;;2.09;100.00
41222;BME280;26952;42.884;23.918;2022-11-27T02:47:56;96857.22;;;2.10;100.00
41222;BME280;26952;42.884;23.918;2022-11-27T02:50:24;96858.47;;;2.17;100.00
41222;BME280;26952;42.884;23.918;2022-11-27T02:52:52;96857.47;;;2.20;100.00
41222;BME280;26952;42.884;23.918;2022-11-27T02:55:24;96859.88;;;2.23;100.00
41222;BME280;26952;42.884;23.918;2022-11-27T02:57:53;96864.91;;;2.26;100.00
41222;BME280;26952;42.884;23.918;2022-11-27T03:00:19;96848.13;;;2.30;100.00
41222;BME280;26952;42.884;23.918;2022-11-27T03:02:49;96859.66;;;2.40;100.00
41222;BME280;26952;42.884;23.918;2022-11-27T03:05:19;96862.78;;;2.45;100.00
41222;BME280;26952;42.884;23.918;2022-11-27T03:10:23;96860.38;;;2.42;100.00
41222;BME280;26952;42.884;23.918;2022-11-27T03:12:50;96868.88;;;2.45;100.00
41222;BME280;26952;42.884;23.918;2022-11-27T03:15:16;96866.78;;;2.50;100.00
41222;BME280;26952;42.884;23.918;2022-11-27T03:20:36;96871.78;;;2.41;100.00
41222;BME280;26952;42.884;23.918;2022-11-27T03:23:00;96869.72;;;2.46;100.00
41222;BME280;26952;42.884;23.918;2022-11-27T03:25:25;96863.19;;;2.39;100.00
41222;BME280;26952;42.884;23.918;2022-11-27T03:28:00;96869.50;;;2.49;100.00
41222;BME280;26952;42.884;23.918;2022-11-27T03:30:26;96858.09;;;2.50;100.00
41222;BME280;26952;42.884;23.918;2022-11-27T03:32:52;96867.03;;;2.60;100.00
41222;BME280;26952;42.884;23.918;2022-11-27T03:35:21;96859.00;;;2.63;100.00
41222;BME280;26952;42.884;23.918;2022-11-27T03:37:47;96860.78;;;2.62;100.00
41222;BME280;26952;42.884;23.918;2022-11-27T03:40:14;96878.47;;;2.71;100.00
41222;BME280;26952;42.884;23.918;2022-11-27T03:58:05;96856.19;;;2.66;100.00
41222;BME280;26952;42.884;23.918;2022-11-27T04:00:36;96852.84;;;2.64;100.00
41222;BME280;26952;42.884;23.918;2022-11-27T04:03:03;96855.91;;;2.70;100.00
41222;BME280;26952;42.884;23.918;2022-11-27T04:05:29;96865.94;;;2.76;100.00
41222;BME280;26952;42.884;23.918;2022-11-27T04:07:54;96862.69;;;2.73;100.00
41222;BME280;26952;42.884;23.918;2022-11-27T04:10:20;96860.47;;;2.67;100.00
41222;BME280;26952;42.884;23.918;2022-11-27T04:12:45;96849.13;;;2.27;100.00
41222;BME280;26952;42.884;23.918;2022-11-27T04:15:11;96850.66;;;2.17;100.00
41222;BME280;26952;42.884;23.918;2022-11-27T04:17:36;96846.13;;;2.07;100.00
41222;BME280;26952;42.884;23.918;2022-11-27T04:20:03;96843.34;;;1.96;100.00
41222;BME280;26952;42.884;23.918;2022-11-27T04:22:29;96842.69;;;1.92;100.00
41222;BME280;26952;42.884;23.918;2022-11-27T04:24:54;96848.88;;;1.91;100.00
41222;BME280;26952;42.884;23.918;2022-11-27T04:27:20;96855.47;;;1.69;100.00
41222;BME280;26952;42.884;23.918;2022-11-27T04:29:45;96850.00;;;1.59;100.00
41222;BME280;26952;42.884;23.918;2022-11-27T04:32:10;96848.22;;;1.60;100.00
41222;BME280;26952;42.884;23.918;2022-11-27T04:34:36;96854.84;;;1.65;100.00
41222;BME280;26952;42.884;23.918;2022-11-27T04:37:02;96854.59;;;1.56;100.00
41222;BME280;26952;42.884;23.918;2022-11-27T04:39:27;96859.34;;;1.49;100.00
41222;BME280;26952;42.884;23.918;2022-11-27T04:41:53;96853.19;;;1.36;100.00
41222;BME280;26952;42.884;23.918;2022-11-27T04:44:18;96847.66;;;1.26;100.00
41222;BME280;26952;42.884;23.918;2022-11-27T04:46:43;96850.81;;;1.17;100.00
41222;BME280;26952;42.884;23.918;2022-11-27T04:49:09;96861.16;;;1.19;100.00
41222;BME280;26952;42.884;23.918;2022-11-27T04:51:35;96862.72;;;1.07;100.00
41222;BME280;26952;42.884;23.918;2022-11-27T04:54:01;96845.13;;;0.97;100.00
41222;BME280;26952;42.884;23.918;2022-11-27T04:56:26;96852.28;;;1.07;100.00
41222;BME280;26952;42.884;23.918;2022-11-27T04:58:52;96859.00;;;1.11;100.00
41222;BME280;26952;42.884;23.918;2022-11-27T05:01:17;96846.78;;;0.98;100.00
41222;BME280;26952;42.884;23.918;2022-11-27T05:03:42;96853.94;;;0.94;100.00
41222;BME280;26952;42.884;23.918;2022-11-27T05:06:08;96865.31;;;1.07;100.00
41222;BME280;26952;42.884;23.918;2022-11-27T05:08:34;96871.47;;;1.06;100.00
41222;BME280;26952;42.884;23.918;2022-11-27T05:11:05;96868.84;;;0.92;100.00
41222;BME280;26952;42.884;23.918;2022-11-27T05:13:31;96869.56;;;0.94;100.00
41222;BME280;26952;42.884;23.918;2022-11-27T05:15:57;96867.81;;;0.95;100.00
41222;BME280;26952;42.884;23.918;2022-11-27T05:18:22;96866.16;;;0.94;100.00
41222;BME280;26952;42.884;23.918;2022-11-27T05:20:59;96869.75;;;0.91;100.00
41222;BME280;26952;42.884;23.918;2022-11-27T05:23:25;96884.31;;;0.95;100.00
41222;BME280;26952;42.884;23.918;2022-11-27T05:25:51;96890.41;;;0.94;100.00
41222;BME280;26952;42.884;23.918;2022-11-27T05:28:17;96874.44;;;0.71;100.00
41222;BME280;26952;42.884;23.918;2022-11-27T05:30:44;96887.13;;;0.77;100.00
41222;BME280;26952;42.884;23.918;2022-11-27T05:33:10;96877.91;;;0.71;100.00
41222;BME280;26952;42.884;23.918;2022-11-27T05:35:35;96885.06;;;0.52;100.00
41222;BME280;26952;42.884;23.918;2022-11-27T05:38:00;96890.63;;;0.46;100.00
41222;BME280;26952;42.884;23.918;2022-11-27T05:40:26;96886.09;;;0.34;100.00
41222;BME280;26952;42.884;23.918;2022-11-27T05:42:51;96879.22;;;0.33;100.00
41222;BME280;26952;42.884;23.918;2022-11-27T05:45:17;96892.91;;;0.37;100.00
41222;BME280;26952;42.884;23.918;2022-11-27T05:47:42;96887.09;;;0.32;100.00
41222;BME280;26952;42.884;23.918;2022-11-27T05:50:08;96889.63;;;0.33;100.00
41222;BME280;26952;42.884;23.918;2022-11-27T05:52:33;96882.75;;;0.32;100.00
41222;BME280;26952;42.884;23.918;2022-11-27T05:54:58;96892.47;;;0.44;100.00
41222;BME280;26952;42.884;23.918;2022-11-27T05:57:24;96899.97;;;0.50;100.00
41222;BME280;26952;42.884;23.918;2022-11-27T05:59:49;96894.03;;;0.62;100.00
41222;BME280;26952;42.884;23.918;2022-11-27T06:02:15;96896.69;;;0.76;100.00
41222;BME280;26952;42.884;23.918;2022-11-27T06:04:40;96885.94;;;0.82;100.00
41222;BME280;26952;42.884;23.918;2022-11-27T06:07:05;96884.63;;;0.89;100.00
41222;BME280;26952;42.884;23.918;2022-11-27T06:09:31;96895.84;;;1.05;100.00
41222;BME280;26952;42.884;23.918;2022-11-27T06:11:56;96896.16;;;1.15;100.00
41222;BME280;26952;42.884;23.918;2022-11-27T06:14:22;96899.06;;;1.24;100.00
41222;BME280;26952;42.884;23.918;2022-11-27T06:16:47;96899.16;;;1.23;100.00
41222;BME280;26952;42.884;23.918;2022-11-27T06:19:13;96903.63;;;1.35;100.00
41222;BME280;26952;42.884;23.918;2022-11-27T06:21:38;96898.53;;;1.48;100.00
41222;BME280;26952;42.884;23.918;2022-11-27T06:24:04;96896.03;;;1.60;100.00
41222;BME280;26952;42.884;23.918;2022-11-27T06:26:31;96891.84;;;1.72;100.00
41222;BME280;26952;42.884;23.918;2022-11-27T06:28:58;96891.00;;;1.71;100.00
41222;BME280;26952;42.884;23.918;2022-11-27T06:31:26;96893.31;;;1.76;100.00
41222;BME280;26952;42.884;23.918;2022-11-27T06:33:53;96890.88;;;1.87;100.00
41222;BME280;26952;42.884;23.918;2022-11-27T06:36:21;96897.22;;;1.97;100.00
41222;BME280;26952;42.884;23.918;2022-11-27T06:38:47;96886.22;;;2.06;100.00
41222;BME280;26952;42.884;23.918;2022-11-27T06:41:18;96895.69;;;2.21;100.00
41222;BME280;26952;42.884;23.918;2022-11-27T06:43:44;96891.81;;;2.40;100.00
41222;BME280;26952;42.884;23.918;2022-11-27T06:46:14;96899.25;;;2.60;100.00
41222;BME280;26952;42.884;23.918;2022-11-27T06:48:42;96869.09;;;2.55;100.00
41222;BME280;26952;42.884;23.918;2022-11-27T06:51:09;96897.81;;;2.69;100.00
41222;BME280;26952;42.884;23.918;2022-11-27T06:53:36;96882.91;;;2.57;100.00
41222;BME280;26952;42.884;23.918;2022-11-27T06:56:03;96890.69;;;2.71;100.00
41222;BME280;26952;42.884;23.918;2022-11-27T06:58:29;96892.84;;;2.91;100.00
41222;BME280;26952;42.884;23.918;2022-11-27T07:00:58;96898.53;;;3.10;100.00
41222;BME280;26952;42.884;23.918;2022-11-27T07:03:24;96882.97;;;3.09;100.00
41222;BME280;26952;42.884;23.918;2022-11-27T07:05:50;96899.63;;;3.33;100.00
41222;BME280;26952;42.884;23.918;2022-11-27T07:08:15;96904.47;;;3.51;100.00
41222;BME280;26952;42.884;23.918;2022-11-27T07:10:41;96895.25;;;3.58;100.00
41222;BME280;26952;42.884;23.918;2022-11-27T07:13:06;96895.59;;;3.66;100.00
41222;BME280;26952;42.884;23.918;2022-11-27T07:15:31;96898.22;;;3.66;100.00
41222;BME280;26952;42.884;23.918;2022-11-27T07:17:57;96890.44;;;3.52;100.00
41222;BME280;26952;42.884;23.918;2022-11-27T07:20:22;96891.72;;;3.47;100.00
41222;BME280;26952;42.884;23.918;2022-11-27T07:22:48;96899.25;;;3.51;100.00
41222;BME280;26952;42.884;23.918;2022-11-27T07:25:13;96904.47;;;3.51;100.00
41222;BME280;26952;42.884;23.918;2022-11-27T07:27:39;96910.44;;;3.66;100.00
41222;BME280;26952;42.884;23.918;2022-11-27T07:30:05;96899.44;;;3.73;100.00
41222;BME280;26952;42.884;23.918;2022-11-27T07:32:30;96905.19;;;3.78;100.00
41222;BME280;26952;42.884;23.918;2022-11-27T07:34:56;96907.38;;;3.84;100.00
41222;BME280;26952;42.884;23.918;2022-11-27T07:37:21;96899.97;;;3.78;100.00
41222;BME280;26952;42.884;23.918;2022-11-27T07:39:46;96898.81;;;3.82;100.00
41222;BME280;26952;42.884;23.918;2022-11-27T07:42:12;96899.53;;;3.84;100.00
41222;BME280;26952;42.884;23.918;2022-11-27T07:44:37;96901.31;;;3.96;100.00
41222;BME280;26952;42.884;23.918;2022-11-27T07:47:03;96902.06;;;3.98;100.00
41222;BME280;26952;42.884;23.918;2022-11-27T07:49:28;96904.16;;;3.93;100.00
41222;BME280;26952;42.884;23.918;2022-11-27T07:51:53;96910.53;;;3.89;100.00
41222;BME280;26952;42.884;23.918;2022-11-27T07:54:19;96912.44;;;3.87;100.00
41222;BME280;26952;42.884;23.918;2022-11-27T07:56:44;96916.22;;;3.71;100.00
41222;BME280;26952;42.884;23.918;2022-11-27T07:59:09;96909.31;;;3.82;100.00
41222;BME280;26952;42.884;23.918;2022-11-27T08:01:35;96908.44;;;3.94;100.00
41222;BME280;26952;42.884;23.918;2022-11-27T08:04:00;96914.06;;;4.13;100.00
41222;BME280;26952;42.884;23.918;2022-11-27T08:06:26;96893.09;;;4.13;100.00
41222;BME280;26952;42.884;23.918;2022-11-27T08:08:52;96907.97;;;4.25;100.00
41222;BME280;26952;42.884;23.918;2022-11-27T08:11:25;96907.00;;;4.39;100.00
41222;BME280;26952;42.884;23.918;2022-11-27T08:13:55;96908.41;;;4.56;100.00
41222;BME280;26952;42.884;23.918;2022-11-27T08:16:21;96902.22;;;4.57;100.00
41222;BME280;26952;42.884;23.918;2022-11-27T08:18:46;96896.69;;;4.49;100.00
41222;BME280;26952;42.884;23.918;2022-11-27T08:21:12;96891.97;;;4.54;100.00
41222;BME280;26952;42.884;23.918;2022-11-27T08:23:38;96887.53;;;4.54;100.00
41222;BME280;26952;42.884;23.918;2022-11-27T08:26:05;96898.75;;;4.56;100.00
41222;BME280;26952;42.884;23.918;2022-11-27T08:28:31;96902.81;;;4.37;100.00
41222;BME280;26952;42.884;23.918;2022-11-27T08:30:58;96894.59;;;4.54;100.00
41222;BME280;26952;42.884;23.918;2022-11-27T08:33:23;96877.44;;;4.61;100.00
41222;BME280;26952;42.884;23.918;2022-11-27T08:35:49;96898.97;;;4.77;100.00
41222;BME280;26952;42.884;23.918;2022-11-27T08:38:15;96885.59;;;4.92;100.00
41222;BME280;26952;42.884;23.918;2022-11-27T08:40:40;96896.06;;;5.16;100.00
41222;BME280;26952;42.884;23.918;2022-11-27T08:43:06;96883.19;;;5.24;100.00
41222;BME280;26952;42.884;23.918;2022-11-27T08:45:31;96902.44;;;5.35;100.00
41222;BME280;26952;42.884;23.918;2022-11-27T08:47:57;96886.22;;;5.41;100.00
41222;BME280;26952;42.884;23.918;2022-11-27T08:50:23;96897.22;;;5.46;100.00
41222;BME280;26952;42.884;23.918;2022-11-27T08:52:48;96897.72;;;5.51;99.32
41222;BME280;26952;42.884;23.918;2022-11-27T08:55:14;96891.44;;;5.19;100.00
41222;BME280;26952;42.884;23.918;2022-11-27T08:57:39;96890.13;;;4.90;100.00
41222;BME280;26952;42.884;23.918;2022-11-27T09:00:05;96875.06;;;4.81;100.00
41222;BME280;26952;42.884;23.918;2022-11-27T09:02:32;96889.91;;;4.70;100.00
41222;BME280;26952;42.884;23.918;2022-11-27T09:04:58;96888.56;;;4.88;100.00
41222;BME280;26952;42.884;23.918;2022-11-27T09:07:23;96890.72;;;4.94;100.00
41222;BME280;26952;42.884;23.918;2022-11-27T09:09:49;96882.03;;;4.93;100.00
41222;BME280;26952;42.884;23.918;2022-11-27T09:12:14;96878.13;;;4.99;100.00
41222;BME280;26952;42.884;23.918;2022-11-27T09:14:40;96881.84;;;5.07;100.00
41222;BME280;26952;42.884;23.918;2022-11-27T09:17:05;96879.03;;;5.21;100.00
41222;BME280;26952;42.884;23.918;2022-11-27T09:19:31;96873.81;;;5.43;100.00
41222;BME280;26952;42.884;23.918;2022-11-27T09:21:56;96886.91;;;5.67;100.00
41222;BME280;26952;42.884;23.918;2022-11-27T09:24:22;96874.13;;;5.74;100.00
41222;BME280;26952;42.884;23.918;2022-11-27T09:26:47;96863.78;;;5.94;100.00
41222;BME280;26952;42.884;23.918;2022-11-27T09:29:13;96861.16;;;6.27;100.00
41222;BME280;26952;42.884;23.918;2022-11-27T09:31:38;96865.13;;;6.64;99.17
41222;BME280;26952;42.884;23.918;2022-11-27T09:34:04;96863.63;;;6.82;93.02
41222;BME280;26952;42.884;23.918;2022-11-27T09:36:29;96864.53;;;6.92;87.86
41222;BME280;26952;42.884;23.918;2022-11-27T09:38:57;96860.31;;;7.01;87.18
41222;BME280;26952;42.884;23.918;2022-11-27T09:44:21;96850.97;;;7.29;91.27
41222;BME280;26952;42.884;23.918;2022-11-27T09:46:49;96846.31;;;7.32;89.45
41222;BME280;26952;42.884;23.918;2022-11-27T09:49:21;96843.66;;;7.53;88.56
41222;BME280;26952;42.884;23.918;2022-11-27T09:51:51;96850.53;;;7.65;86.26
41222;BME280;26952;42.884;23.918;2022-11-27T09:54:23;96826.75;;;7.14;80.58
41222;BME280;26952;42.884;23.918;2022-11-27T09:56:51;96831.44;;;7.11;82.44
41222;BME280;26952;42.884;23.918;2022-11-27T09:59:20;96824.66;;;7.08;84.01
41222;BME280;26952;42.884;23.918;2022-11-27T10:01:46;96838.94;;;7.15;85.50
41222;BME280;26952;42.884;23.918;2022-11-27T10:04:15;96837.09;;;7.27;83.97
41222;BME280;26952;42.884;23.918;2022-11-27T10:09:25;96827.25;;;7.49;83.61
41222;BME280;26952;42.884;23.918;2022-11-27T10:11:56;96824.00;;;7.57;81.13
41222;BME280;26952;42.884;23.918;2022-11-27T10:17:00;96808.31;;;7.35;84.37
41222;BME280;26952;42.884;23.918;2022-11-27T10:22:16;96812.94;;;7.63;81.02
41222;BME280;26952;42.884;23.918;2022-11-27T10:25:10;96814.69;;;7.53;80.49
41222;BME280;26952;42.884;23.918;2022-11-27T10:27:43;96799.75;;;7.33;80.00
41222;BME280;26952;42.884;23.918;2022-11-27T10:30:18;96799.22;;;7.18;85.25
41222;BME280;26952;42.884;23.918;2022-11-27T10:32:46;96799.66;;;7.02;89.14
41222;BME280;26952;42.884;23.918;2022-11-27T10:35:17;96788.97;;;6.63;91.56
41222;BME280;26952;42.884;23.918;2022-11-27T10:40:51;96788.69;;;6.34;96.82
41222;BME280;26952;42.884;23.918;2022-11-27T10:43:20;96786.78;;;6.36;96.91
41222;BME280;26952;42.884;23.918;2022-11-27T10:46:00;96781.25;;;6.39;95.53
41222;BME280;26952;42.884;23.918;2022-11-27T10:48:26;96771.00;;;6.36;96.31
41222;BME280;26952;42.884;23.918;2022-11-27T10:50:54;96758.84;;;6.24;97.93
41222;BME280;26952;42.884;23.918;2022-11-27T10:53:29;96757.66;;;6.28;97.58
41222;BME280;26952;42.884;23.918;2022-11-27T11:01:27;96748.78;;;6.29;99.33
41222;BME280;26952;42.884;23.918;2022-11-27T11:04:05;96754.25;;;6.37;96.87
41222;BME280;26952;42.884;23.918;2022-11-27T11:06:33;96759.44;;;6.59;96.41
41222;BME280;26952;42.884;23.918;2022-11-27T11:09:11;96741.09;;;6.48;95.92
41222;BME280;26952;42.884;23.918;2022-11-27T11:11:38;96746.38;;;6.37;90.47
41222;BME280;26952;42.884;23.918;2022-11-27T11:14:15;96742.19;;;6.66;91.88
41222;BME280;26952;42.884;23.918;2022-11-27T11:16:42;96754.66;;;6.53;89.84
41222;BME280;26952;42.884;23.918;2022-11-27T11:19:33;96755.38;;;6.55;90.70
41222;BME280;26952;42.884;23.918;2022-11-27T11:22:03;96755.84;;;6.60;93.74
41222;BME280;26952;42.884;23.918;2022-11-27T11:24:31;96741.56;;;6.74;91.21
41222;BME280;26952;42.884;23.918;2022-11-27T11:27:05;96748.34;;;6.76;88.73
41222;BME280;26952;42.884;23.918;2022-11-27T11:29:39;96737.94;;;6.54;91.66
41222;BME280;26952;42.884;23.918;2022-11-27T11:34:50;96723.00;;;6.55;92.63
41222;BME280;26952;42.884;23.918;2022-11-27T11:42:37;96721.66;;;6.81;89.89
41222;BME280;26952;42.884;23.918;2022-11-27T11:47:55;96720.50;;;6.94;90.59
41222;BME280;26952;42.884;23.918;2022-11-27T11:50:41;96725.19;;;6.50;92.78
41222;BME280;26952;42.884;23.918;2022-11-27T11:58:56;96716.97;;;6.32;97.25
41222;BME280;26952;42.884;23.918;2022-11-27T12:12:02;96707.94;;;6.25;97.64
41222;BME280;26952;42.884;23.918;2022-11-27T12:14:42;96712.16;;;6.17;98.26
41222;BME280;26952;42.884;23.918;2022-11-27T12:17:13;96700.22;;;6.13;99.02
41222;BME280;26952;42.884;23.918;2022-11-27T12:20:13;96711.28;;;6.27;99.42
41222;BME280;26952;42.884;23.918;2022-11-27T12:34:12;96682.34;;;5.96;99.79
41222;BME280;26952;42.884;23.918;2022-11-27T12:36:59;96692.69;;;6.08;98.73
41222;BME280;26952;42.884;23.918;2022-11-27T12:42:28;96693.72;;;5.96;98.45
41222;BME280;26952;42.884;23.918;2022-11-27T12:47:52;96685.69;;;5.98;97.44
41222;BME280;26952;42.884;23.918;2022-11-27T12:53:28;96689.53;;;5.94;97.06
41222;BME280;26952;42.884;23.918;2022-11-27T12:56:15;96695.63;;;5.94;98.25
41222;BME280;26952;42.884;23.918;2022-11-27T12:58:47;96695.03;;;5.91;97.48
41222;BME280;26952;42.884;23.918;2022-11-27T13:01:28;96703.72;;;6.02;98.48
41222;BME280;26952;42.884;23.918;2022-11-27T13:06:52;96692.56;;;6.10;95.41
41222;BME280;26952;42.884;23.918;2022-11-27T13:09:26;96689.88;;;6.00;96.26
41222;BME280;26952;42.884;23.918;2022-11-27T13:11:55;96694.88;;;6.03;96.20
41222;BME280;26952;42.884;23.918;2022-11-27T13:14:24;96679.38;;;5.89;95.93
41222;BME280;26952;42.884;23.918;2022-11-27T13:17:03;96693.22;;;6.02;95.50
41222;BME280;26952;42.884;23.918;2022-11-27T13:19:36;96693.72;;;5.96;94.31
41222;BME280;26952;42.884;23.918;2022-11-27T13:22:08;96687.53;;;5.86;95.17
41222;BME280;26952;42.884;23.918;2022-11-27T13:24:36;96685.75;;;5.87;96.12
41222;BME280;26952;42.884;23.918;2022-11-27T13:29:54;96696.03;;;6.10;95.21
41222;BME280;26952;42.884;23.918;2022-11-27T13:32:24;96692.69;;;6.08;96.04
41222;BME280;26952;42.884;23.918;2022-11-27T13:34:52;96692.44;;;6.11;95.56
41222;BME280;26952;42.884;23.918;2022-11-27T13:37:29;96687.84;;;6.24;96.60
41222;BME280;26952;42.884;23.918;2022-11-27T13:42:28;96690.94;;;6.29;95.32
41222;BME280;26952;42.884;23.918;2022-11-27T13:44:59;96694.03;;;6.34;94.51
41222;BME280;26952;42.884;23.918;2022-11-27T13:47:29;96669.09;;;6.29;93.71
41222;BME280;26952;42.884;23.918;2022-11-27T13:50:06;96689.69;;;6.44;92.47
41222;BME280;26952;42.884;23.918;2022-11-27T13:52:34;96677.75;;;6.40;92.59
41222;BME280;26952;42.884;23.918;2022-11-27T13:55:02;96678.66;;;6.30;92.26
41222;BME280;26952;42.884;23.918;2022-11-27T13:57:28;96685.69;;;6.29;93.38
41222;BME280;26952;42.884;23.918;2022-11-27T14:00:07;96680.44;;;6.29;94.10
41222;BME280;26952;42.884;23.918;2022-11-27T14:05:11;96675.75;;;6.12;94.84
41222;BME280;26952;42.884;23.918;2022-11-27T14:07:39;96688.38;;;6.18;94.74
41222;BME280;26952;42.884;23.918;2022-11-27T14:10:11;96678.88;;;6.06;95.95
41222;BME280;26952;42.884;23.918;2022-11-27T14:12:38;96690.78;;;6.10;97.35
41222;BME280;26952;42.884;23.918;2022-11-27T14:17:44;96682.13;;;6.19;97.78
41222;BME280;26952;42.884;23.918;2022-11-27T14:20:28;96681.06;;;6.22;97.64
41222;BME280;26952;42.884;23.918;2022-11-27T14:22:55;96684.41;;;6.24;96.91
41222;BME280;26952;42.884;23.918;2022-11-27T14:25:33;96672.34;;;6.21;96.11
41222;BME280;26952;42.884;23.918;2022-11-27T14:28:19;96687.38;;;6.30;95.61
41222;BME280;26952;42.884;23.918;2022-11-27T14:30:48;96669.09;;;6.29;97.02
41222;BME280;26952;42.884;23.918;2022-11-27T14:33:17;96680.28;;;6.10;99.02
41222;BME280;26952;42.884;23.918;2022-11-27T14:35:47;96674.00;;;5.91;100.00
41222;BME280;26952;42.884;23.918;2022-11-27T14:38:14;96684.66;;;5.89;100.00
41222;BME280;26952;42.884;23.918;2022-11-27T14:40:40;96686.81;;;5.73;100.00
41222;BME280;26952;42.884;23.918;2022-11-27T14:43:17;96684.91;;;5.53;100.00
41222;BME280;26952;42.884;23.918;2022-11-27T14:45:49;96672.31;;;5.25;100.00
41222;BME280;26952;42.884;23.918;2022-11-27T14:48:24;96681.38;;;5.10;100.00
41222;BME280;26952;42.884;23.918;2022-11-27T14:50:52;96685.16;;;5.06;100.00
41222;BME280;26952;42.884;23.918;2022-11-27T14:53:26;96687.19;;;4.91;100.00
41222;BME280;26952;42.884;23.918;2022-11-27T14:55:54;96683.03;;;4.89;100.00
41222;BME280;26952;42.884;23.918;2022-11-27T14:58:25;96684.69;;;4.90;100.00
41222;BME280;26952;42.884;23.918;2022-11-27T15:00:55;96672.53;;;4.78;100.00
41222;BME280;26952;42.884;23.918;2022-11-27T15:03:23;96685.41;;;4.81;100.00
41222;BME280;26952;42.884;23.918;2022-11-27T15:05:58;96683.75;;;4.80;100.00
41222;BME280;26952;42.884;23.918;2022-11-27T15:08:25;96686.25;;;4.81;100.00
41222;BME280;26952;42.884;23.918;2022-11-27T15:10:55;96672.03;;;4.73;100.00
41222;BME280;26952;42.884;23.918;2022-11-27T15:13:26;96696.72;;;4.81;100.00